sensor_id;sensor_type;location;lat;lon;timestamp;pressure;altitude;pressure_sealevel;temperature;humidity
72857;BME280;62742;52.136;4.500;2023-07-13T00:00:50;101383.69;;;18.41;74.58
72857;BME280;62742;52.136;4.500;2023-07-13T00:03:16;101380.47;;;18.32;74.72
72857;BME280;62742;52.136;4.500;2023-07-13T00:05:44;101382.59;;;18.46;74.24
72857;BME280;62742;52.136;4.500;2023-07-13T00:08:11;101385.25;;;18.46;73.70
72857;BME280;62742;52.136;4.500;2023-07-13T00:10:41;101378.63;;;18.57;73.59
72857;BME280;62742;52.136;4.500;2023-07-13T00:13:08;101375.66;;;18.42;74.11
72857;BME280;62742;52.136;4.500;2023-07-13T00:15:35;101375.75;;;18.39;74.68
72857;BME280;62742;52.136;4.500;2023-07-13T00:18:02;101388.94;;;18.42;74.58
72857;BME280;62742;52.136;4.500;2023-07-13T00:20:29;101387.59;;;18.32;74.82
72857;BME280;62742;52.136;4.500;2023-07-13T00:22:56;101387.25;;;18.41;75.04
72857;BME280;62742;52.136;4.500;2023-07-13T00:25:23;101384.56;;;18.41;74.41
72857;BME280;62742;52.136;4.500;2023-07-13T00:27:56;101387.47;;;18.35;75.20
72857;BME280;62742;52.136;4.500;2023-07-13T00:30:23;101392.56;;;18.41;74.80
72857;BME280;62742;52.136;4.500;2023-07-13T00:32:51;101395.56;;;18.32;75.05
72857;BME280;62742;52.136;4.500;2023-07-13T00:35:18;101392.63;;;18.40;74.29
72857;BME280;62742;52.136;4.500;2023-07-13T00:37:45;101407.06;;;18.32;74.70
72857;BME280;62742;52.136;4.500;2023-07-13T00:40:13;101395.22;;;18.41;73.84
72857;BME280;62742;52.136;4.500;2023-07-13T00:42:40;101401.56;;;18.37;73.74
72857;BME280;62742;52.136;4.500;2023-07-13T00:47:41;101393.25;;;18.46;71.89
72857;BME280;62742;52.136;4.500;2023-07-13T00:50:10;101388.66;;;18.28;71.59
72857;BME280;62742;52.136;4.500;2023-07-13T00:52:43;101398.13;;;18.35;70.74
72857;BME280;62742;52.136;4.500;2023-07-13T00:55:13;101393.28;;;18.23;70.94
72857;BME280;62742;52.136;4.500;2023-07-13T00:57:42;101395.59;;;18.08;70.20
72857;BME280;62742;52.136;4.500;2023-07-13T01:00:11;101398.25;;;18.08;70.07
72857;BME280;62742;52.136;4.500;2023-07-13T01:02:41;101398.50;;;18.02;70.37
72857;BME280;62742;52.136;4.500;2023-07-13T01:05:16;101390.78;;;17.94;69.68
72857;BME280;62742;52.136;4.500;2023-07-13T01:07:46;101403.22;;;17.94;69.63
72857;BME280;62742;52.136;4.500;2023-07-13T01:10:16;101399.00;;;18.12;68.93
72857;BME280;62742;52.136;4.500;2023-07-13T01:12:43;101400.56;;;17.94;68.89
72857;BME280;62742;52.136;4.500;2023-07-13T01:15:39;101395.47;;;17.88;68.87
72857;BME280;62742;52.136;4.500;2023-07-13T01:18:09;101397.63;;;17.76;69.79
72857;BME280;62742;52.136;4.500;2023-07-13T01:20:39;101403.59;;;17.83;69.76
72857;BME280;62742;52.136;4.500;2023-07-13T01:23:09;101404.13;;;17.93;69.46
72857;BME280;62742;52.136;4.500;2023-07-13T01:25:39;101401.91;;;17.81;69.68
72857;BME280;62742;52.136;4.500;2023-07-13T01:28:07;101406.03;;;17.64;70.41
72857;BME280;62742;52.136;4.500;2023-07-13T01:30:39;101409.13;;;17.77;69.38
72857;BME280;62742;52.136;4.500;2023-07-13T01:33:07;101412.28;;;17.63;69.95
72857;BME280;62742;52.136;4.500;2023-07-13T01:35:35;101418.69;;;17.57;70.52
72857;BME280;62742;52.136;4.500;2023-07-13T01:38:05;101415.09;;;17.58;70.31
72857;BME280;62742;52.136;4.500;2023-07-13T01:40:31;101412.28;;;17.63;69.86
72857;BME280;62742;52.136;4.500;2023-07-13T01:42:59;101417.06;;;17.53;70.04
72857;BME280;62742;52.136;4.500;2023-07-13T01:45:26;101409.78;;;17.58;69.41
72857;BME280;62742;52.136;4.500;2023-07-13T01:47:53;101410.13;;;17.49;69.95
72857;BME280;62742;52.136;4.500;2023-07-13T01:50:20;101419.81;;;17.50;70.68
72857;BME280;62742;52.136;4.500;2023-07-13T01:52:47;101423.63;;;17.43;71.33
72857;BME280;62742;52.136;4.500;2023-07-13T01:55:13;101424.75;;;17.36;72.00
72857;BME280;62742;52.136;4.500;2023-07-13T01:57:40;101428.22;;;17.38;72.64
72857;BME280;62742;52.136;4.500;2023-07-13T02:00:09;101424.06;;;17.31;73.25
72857;BME280;62742;52.136;4.500;2023-07-13T02:02:37;101419.75;;;17.27;74.07
72857;BME280;62742;52.136;4.500;2023-07-13T02:05:04;101425.25;;;17.22;74.25
72857;BME280;62742;52.136;4.500;2023-07-13T02:07:32;101429.75;;;17.20;74.43
72857;BME280;62742;52.136;4.500;2023-07-13T02:09:59;101428.00;;;17.19;74.90
72857;BME280;62742;52.136;4.500;2023-07-13T02:12:25;101431.56;;;17.18;75.23
72857;BME280;62742;52.136;4.500;2023-07-13T02:14:52;101429.75;;;17.20;75.21
72857;BME280;62742;52.136;4.500;2023-07-13T02:17:18;101431.88;;;17.09;75.64
72857;BME280;62742;52.136;4.500;2023-07-13T02:19:45;101439.81;;;17.10;75.97
72857;BME280;62742;52.136;4.500;2023-07-13T02:22:12;101433.63;;;17.10;75.99
72857;BME280;62742;52.136;4.500;2023-07-13T02:24:38;101442.56;;;17.07;75.75
72857;BME280;62742;52.136;4.500;2023-07-13T02:27:05;101432.69;;;17.11;76.00
72857;BME280;62742;52.136;4.500;2023-07-13T02:29:32;101428.41;;;17.07;75.98
72857;BME280;62742;52.136;4.500;2023-07-13T02:31:58;101427.47;;;17.08;75.90
72857;BME280;62742;52.136;4.500;2023-07-13T02:34:25;101426.75;;;17.02;76.12
72857;BME280;62742;52.136;4.500;2023-07-13T02:36:51;101433.00;;;17.01;76.27
72857;BME280;62742;52.136;4.500;2023-07-13T02:39:18;101434.91;;;16.98;76.19
72857;BME280;62742;52.136;4.500;2023-07-13T02:41:44;101430.63;;;16.92;76.47
72857;BME280;62742;52.136;4.500;2023-07-13T02:44:13;101439.41;;;16.94;76.79
72857;BME280;62742;52.136;4.500;2023-07-13T02:46:40;101433.34;;;16.91;77.06
72857;BME280;62742;52.136;4.500;2023-07-13T02:49:07;101439.53;;;16.91;77.11
72857;BME280;62742;52.136;4.500;2023-07-13T02:51:34;101440.69;;;16.82;77.61
72857;BME280;62742;52.136;4.500;2023-07-13T02:54:02;101444.09;;;16.88;77.76
72857;BME280;62742;52.136;4.500;2023-07-13T02:56:31;101437.03;;;16.87;77.86
72857;BME280;62742;52.136;4.500;2023-07-13T02:58:58;101442.38;;;16.85;78.16
72857;BME280;62742;52.136;4.500;2023-07-13T03:01:25;101445.84;;;16.87;78.29
72857;BME280;62742;52.136;4.500;2023-07-13T03:03:52;101440.59;;;16.86;78.63
72857;BME280;62742;52.136;4.500;2023-07-13T03:06:19;101440.81;;;16.78;78.79
72857;BME280;62742;52.136;4.500;2023-07-13T03:08:47;101443.56;;;16.75;79.04
72857;BME280;62742;52.136;4.500;2023-07-13T03:11:18;101444.41;;;16.75;79.04
72857;BME280;62742;52.136;4.500;2023-07-13T03:13:46;101454.91;;;16.80;79.32
72857;BME280;62742;52.136;4.500;2023-07-13T03:16:14;101446.06;;;16.79;79.59
72857;BME280;62742;52.136;4.500;2023-07-13T03:18:42;101450.50;;;16.79;79.16
72857;BME280;62742;52.136;4.500;2023-07-13T03:21:09;101450.81;;;16.70;79.60
72857;BME280;62742;52.136;4.500;2023-07-13T03:23:36;101448.19;;;16.68;80.32
72857;BME280;62742;52.136;4.500;2023-07-13T03:26:07;101447.34;;;16.68;80.43
72857;BME280;62742;52.136;4.500;2023-07-13T03:28:36;101440.38;;;16.63;80.62
72857;BME280;62742;52.136;4.500;2023-07-13T03:31:07;101442.13;;;16.64;80.65
72857;BME280;62742;52.136;4.500;2023-07-13T03:33:39;101448.44;;;16.60;80.75
72857;BME280;62742;52.136;4.500;2023-07-13T03:36:07;101449.94;;;16.69;80.94
72857;BME280;62742;52.136;4.500;2023-07-13T03:38:40;101456.25;;;16.65;81.37
72857;BME280;62742;52.136;4.500;2023-07-13T03:41:07;101453.75;;;16.60;80.89
72857;BME280;62742;52.136;4.500;2023-07-13T03:43:33;101458.22;;;16.58;80.71
72857;BME280;62742;52.136;4.500;2023-07-13T03:46:00;101453.03;;;16.55;81.17
72857;BME280;62742;52.136;4.500;2023-07-13T03:48:27;101452.09;;;16.56;81.75
72857;BME280;62742;52.136;4.500;2023-07-13T03:50:54;101453.97;;;16.53;82.21
72857;BME280;62742;52.136;4.500;2023-07-13T03:53:20;101457.47;;;16.53;82.58
72857;BME280;62742;52.136;4.500;2023-07-13T03:55:47;101453.13;;;16.52;82.54
72857;BME280;62742;52.136;4.500;2023-07-13T03:58:34;101460.22;;;16.52;82.05
72857;BME280;62742;52.136;4.500;2023-07-13T04:01:03;101462.66;;;16.58;84.50
72857;BME280;62742;52.136;4.500;2023-07-13T04:03:33;101460.81;;;16.60;84.42
72857;BME280;62742;52.136;4.500;2023-07-13T04:06:05;101461.81;;;16.57;85.15
72857;BME280;62742;52.136;4.500;2023-07-13T04:08:35;101467.63;;;16.69;85.70
72857;BME280;62742;52.136;4.500;2023-07-13T04:11:04;101472.03;;;16.70;86.55
72857;BME280;62742;52.136;4.500;2023-07-13T04:13:30;101464.97;;;16.69;86.60
72857;BME280;62742;52.136;4.500;2023-07-13T04:15:58;101469.25;;;16.74;86.99
72857;BME280;62742;52.136;4.500;2023-07-13T04:18:24;101474.25;;;16.85;86.85
72857;BME280;62742;52.136;4.500;2023-07-13T04:20:51;101471.59;;;16.83;86.70
72857;BME280;62742;52.136;4.500;2023-07-13T04:23:18;101471.63;;;16.82;86.97
72857;BME280;62742;52.136;4.500;2023-07-13T04:25:46;101473.22;;;16.89;87.00
72857;BME280;62742;52.136;4.500;2023-07-13T04:28:21;101473.13;;;16.92;87.05
72857;BME280;62742;52.136;4.500;2023-07-13T04:30:50;101474.78;;;16.96;86.83
72857;BME280;62742;52.136;4.500;2023-07-13T04:33:17;101474.78;;;16.96;87.03
72857;BME280;62742;52.136;4.500;2023-07-13T04:35:46;101480.84;;;17.00;86.95
72857;BME280;62742;52.136;4.500;2023-07-13T04:38:13;101484.31;;;17.02;86.43
72857;BME280;62742;52.136;4.500;2023-07-13T04:40:47;101486.63;;;17.13;86.25
72857;BME280;62742;52.136;4.500;2023-07-13T04:43:14;101488.75;;;17.28;85.74
72857;BME280;62742;52.136;4.500;2023-07-13T04:45:41;101494.25;;;17.24;86.04
72857;BME280;62742;52.136;4.500;2023-07-13T04:48:08;101490.66;;;17.25;85.61
72857;BME280;62742;52.136;4.500;2023-07-13T04:50:37;101490.31;;;17.35;85.25
72857;BME280;62742;52.136;4.500;2023-07-13T04:53:05;101498.59;;;17.26;85.29
72857;BME280;62742;52.136;4.500;2023-07-13T04:55:32;101497.44;;;17.33;84.94
72857;BME280;62742;52.136;4.500;2023-07-13T04:57:59;101494.28;;;17.49;83.88
72857;BME280;62742;52.136;4.500;2023-07-13T05:00:26;101492.47;;;17.51;83.69
72857;BME280;62742;52.136;4.500;2023-07-13T05:02:54;101511.34;;;17.68;83.14
72857;BME280;62742;52.136;4.500;2023-07-13T05:05:22;101500.09;;;17.87;83.07
72857;BME280;62742;52.136;4.500;2023-07-13T05:07:48;101507.63;;;17.99;82.48
72857;BME280;62742;52.136;4.500;2023-07-13T05:10:15;101503.44;;;18.17;82.57
72857;BME280;62742;52.136;4.500;2023-07-13T05:12:42;101506.63;;;18.50;79.69
72857;BME280;62742;52.136;4.500;2023-07-13T05:15:09;101511.63;;;18.82;78.12
72857;BME280;62742;52.136;4.500;2023-07-13T05:17:38;101509.19;;;18.99;76.56
72857;BME280;62742;52.136;4.500;2023-07-13T05:20:08;101520.09;;;19.15;76.55
72857;BME280;62742;52.136;4.500;2023-07-13T05:22:35;101510.53;;;19.32;74.92
72857;BME280;62742;52.136;4.500;2023-07-13T05:25:07;101515.13;;;19.71;73.92
72857;BME280;62742;52.136;4.500;2023-07-13T05:27:35;101518.28;;;19.80;72.47
72857;BME280;62742;52.136;4.500;2023-07-13T05:30:03;101513.47;;;19.68;73.16
72857;BME280;62742;52.136;4.500;2023-07-13T05:32:30;101521.91;;;19.57;72.54
72857;BME280;62742;52.136;4.500;2023-07-13T05:34:57;101527.56;;;19.50;72.75
72857;BME280;62742;52.136;4.500;2023-07-13T05:37:23;101529.38;;;19.49;73.37
72857;BME280;62742;52.136;4.500;2023-07-13T05:39:50;101520.00;;;19.61;72.61
72857;BME280;62742;52.136;4.500;2023-07-13T05:42:17;101522.97;;;19.74;72.08
72857;BME280;62742;52.136;4.500;2023-07-13T05:44:43;101519.66;;;20.10;69.47
72857;BME280;62742;52.136;4.500;2023-07-13T05:47:11;101526.34;;;19.99;69.86
72857;BME280;62742;52.136;4.500;2023-07-13T05:49:37;101535.53;;;20.13;69.77
72857;BME280;62742;52.136;4.500;2023-07-13T05:52:05;101532.91;;;19.92;69.04
72857;BME280;62742;52.136;4.500;2023-07-13T05:54:31;101533.31;;;19.83;69.76
72857;BME280;62742;52.136;4.500;2023-07-13T05:56:58;101533.31;;;20.04;70.58
72857;BME280;62742;52.136;4.500;2023-07-13T05:59:25;101539.00;;;20.15;70.73
72857;BME280;62742;52.136;4.500;2023-07-13T06:01:52;101546.66;;;20.04;69.93
72857;BME280;62742;52.136;4.500;2023-07-13T06:04:19;101547.47;;;20.64;68.62
72857;BME280;62742;52.136;4.500;2023-07-13T06:06:46;101540.41;;;21.38;64.81
72857;BME280;62742;52.136;4.500;2023-07-13T06:09:12;101535.81;;;21.94;62.06
72857;BME280;62742;52.136;4.500;2023-07-13T06:11:39;101558.47;;;21.52;61.97
72857;BME280;62742;52.136;4.500;2023-07-13T06:14:05;101550.75;;;21.26;63.32
72857;BME280;62742;52.136;4.500;2023-07-13T06:16:32;101565.53;;;20.97;63.36
72857;BME280;62742;52.136;4.500;2023-07-13T06:18:58;101565.25;;;20.84;64.46
72857;BME280;62742;52.136;4.500;2023-07-13T06:21:25;101565.25;;;20.84;64.70
72857;BME280;62742;52.136;4.500;2023-07-13T06:23:52;101566.53;;;21.14;64.73
72857;BME280;62742;52.136;4.500;2023-07-13T06:26:20;101565.94;;;21.26;63.52
72857;BME280;62742;52.136;4.500;2023-07-13T06:28:47;101567.22;;;20.81;64.50
72857;BME280;62742;52.136;4.500;2023-07-13T06:31:14;101571.47;;;20.66;64.50
72857;BME280;62742;52.136;4.500;2023-07-13T06:33:43;101574.91;;;20.87;64.77
72857;BME280;62742;52.136;4.500;2023-07-13T06:36:10;101567.69;;;20.89;63.16
72857;BME280;62742;52.136;4.500;2023-07-13T06:38:38;101566.41;;;21.17;62.54
72857;BME280;62742;52.136;4.500;2023-07-13T06:41:06;101567.03;;;21.58;62.20
72857;BME280;62742;52.136;4.500;2023-07-13T06:43:34;101566.34;;;21.55;62.28
72857;BME280;62742;52.136;4.500;2023-07-13T06:46:01;101570.91;;;21.70;62.05
72857;BME280;62742;52.136;4.500;2023-07-13T06:48:28;101577.03;;;21.90;61.55
72857;BME280;62742;52.136;4.500;2023-07-13T06:50:55;101581.38;;;21.75;61.32
72857;BME280;62742;52.136;4.500;2023-07-13T06:53:23;101573.50;;;21.35;62.67
72857;BME280;62742;52.136;4.500;2023-07-13T06:55:50;101584.00;;;21.21;61.19
72857;BME280;62742;52.136;4.500;2023-07-13T06:58:18;101592.28;;;21.53;60.80
72857;BME280;62742;52.136;4.500;2023-07-13T07:00:46;101583.38;;;21.52;60.44
72857;BME280;62742;52.136;4.500;2023-07-13T07:03:17;101586.16;;;21.51;61.38
72857;BME280;62742;52.136;4.500;2023-07-13T07:05:44;101584.09;;;21.37;61.30
72857;BME280;62742;52.136;4.500;2023-07-13T07:08:10;101593.78;;;21.58;61.42
72857;BME280;62742;52.136;4.500;2023-07-13T07:10:37;101593.72;;;21.77;60.52
72857;BME280;62742;52.136;4.500;2023-07-13T07:13:04;101591.38;;;21.89;60.25
72857;BME280;62742;52.136;4.500;2023-07-13T07:15:31;101587.19;;;21.65;59.63
72857;BME280;62742;52.136;4.500;2023-07-13T07:17:57;101596.16;;;21.64;60.13
72857;BME280;62742;52.136;4.500;2023-07-13T07:20:24;101600.97;;;21.58;60.82
72857;BME280;62742;52.136;4.500;2023-07-13T07:22:50;101607.81;;;21.44;60.55
72857;BME280;62742;52.136;4.500;2023-07-13T07:25:17;101595.34;;;21.07;61.80
72857;BME280;62742;52.136;4.500;2023-07-13T07:27:44;101601.22;;;20.96;62.40
72857;BME280;62742;52.136;4.500;2023-07-13T07:30:12;101599.84;;;21.62;61.04
72857;BME280;62742;52.136;4.500;2023-07-13T07:32:39;101592.34;;;22.56;59.60
72857;BME280;62742;52.136;4.500;2023-07-13T07:35:06;101590.44;;;23.23;56.67
72857;BME280;62742;52.136;4.500;2023-07-13T07:37:33;101596.59;;;23.25;57.13
72857;BME280;62742;52.136;4.500;2023-07-13T07:39:59;101596.28;;;22.82;57.37
72857;BME280;62742;52.136;4.500;2023-07-13T07:42:26;101602.34;;;23.02;57.61
72857;BME280;62742;52.136;4.500;2023-07-13T07:44:53;101598.50;;;23.69;56.89
72857;BME280;62742;52.136;4.500;2023-07-13T07:47:19;101614.44;;;24.03;55.00
72857;BME280;62742;52.136;4.500;2023-07-13T07:49:45;101604.09;;;23.81;54.83
72857;BME280;62742;52.136;4.500;2023-07-13T07:52:12;101613.84;;;23.67;55.13
72857;BME280;62742;52.136;4.500;2023-07-13T07:54:39;101623.75;;;23.35;55.39
72857;BME280;62742;52.136;4.500;2023-07-13T07:57:06;101615.25;;;23.11;56.84
72857;BME280;62742;52.136;4.500;2023-07-13T07:59:34;101623.72;;;22.87;56.96
72857;BME280;62742;52.136;4.500;2023-07-13T08:02:02;101623.88;;;22.84;57.49
72857;BME280;62742;52.136;4.500;2023-07-13T08:04:28;101618.66;;;23.30;56.63
72857;BME280;62742;52.136;4.500;2023-07-13T08:06:55;101629.97;;;23.51;54.95
72857;BME280;62742;52.136;4.500;2023-07-13T08:09:24;101631.38;;;22.93;55.35
72857;BME280;62742;52.136;4.500;2023-07-13T08:11:51;101631.91;;;22.51;56.46
72857;BME280;62742;52.136;4.500;2023-07-13T08:14:18;101628.81;;;22.58;57.64
72857;BME280;62742;52.136;4.500;2023-07-13T08:16:45;101627.00;;;22.92;55.67
72857;BME280;62742;52.136;4.500;2023-07-13T08:19:11;101627.28;;;22.37;57.05
72857;BME280;62742;52.136;4.500;2023-07-13T08:21:38;101636.56;;;22.12;58.74
72857;BME280;62742;52.136;4.500;2023-07-13T08:24:05;101643.00;;;21.73;59.46
72857;BME280;62742;52.136;4.500;2023-07-13T08:26:32;101647.94;;;21.44;59.59
72857;BME280;62742;52.136;4.500;2023-07-13T08:28:58;101636.16;;;21.48;59.76
72857;BME280;62742;52.136;4.500;2023-07-13T08:31:25;101631.94;;;21.98;59.69
72857;BME280;62742;52.136;4.500;2023-07-13T08:33:52;101638.34;;;22.64;59.24
72857;BME280;62742;52.136;4.500;2023-07-13T08:36:19;101626.09;;;23.25;57.13
72857;BME280;62742;52.136;4.500;2023-07-13T08:38:46;101628.03;;;23.69;56.04
72857;BME280;62742;52.136;4.500;2023-07-13T08:41:17;101621.88;;;24.14;53.78
72857;BME280;62742;52.136;4.500;2023-07-13T08:43:49;101629.09;;;23.83;55.25
72857;BME280;62742;52.136;4.500;2023-07-13T08:46:24;101628.03;;;23.85;55.95
72857;BME280;62742;52.136;4.500;2023-07-13T08:48:59;101625.56;;;23.97;54.60
72857;BME280;62742;52.136;4.500;2023-07-13T08:51:44;101634.59;;;23.64;54.57
72857;BME280;62742;52.136;4.500;2023-07-13T08:54:32;101636.38;;;23.17;55.32
72857;BME280;62742;52.136;4.500;2023-07-13T08:57:16;101633.91;;;23.60;56.66
72857;BME280;62742;52.136;4.500;2023-07-13T08:59:46;101630.94;;;23.97;54.45
72857;BME280;62742;52.136;4.500;2023-07-13T09:16:34;101640.81;;;23.96;53.99
72857;BME280;62742;52.136;4.500;2023-07-13T09:19:05;101638.97;;;24.27;53.32
72857;BME280;62742;52.136;4.500;2023-07-13T09:21:41;101640.75;;;23.82;52.91
72857;BME280;62742;52.136;4.500;2023-07-13T09:27:27;101645.09;;;24.15;51.91
72857;BME280;62742;52.136;4.500;2023-07-13T09:30:24;101651.13;;;24.18;52.66
72857;BME280;62742;52.136;4.500;2023-07-13T09:33:04;101649.78;;;24.56;52.00
72857;BME280;62742;52.136;4.500;2023-07-13T09:35:30;101653.56;;;24.82;51.91
72857;BME280;62742;52.136;4.500;2023-07-13T09:38:02;101656.13;;;24.83;51.26
72857;BME280;62742;52.136;4.500;2023-07-13T09:41:11;101650.16;;;25.07;52.77
72857;BME280;62742;52.136;4.500;2023-07-13T09:44:31;101661.84;;;24.34;52.90
72857;BME280;62742;52.136;4.500;2023-07-13T09:47:01;101666.88;;;24.98;52.83
72857;BME280;62742;52.136;4.500;2023-07-13T09:49:34;101671.50;;;25.52;50.08
72857;BME280;62742;52.136;4.500;2023-07-13T09:52:10;101671.97;;;25.58;50.15
72857;BME280;62742;52.136;4.500;2023-07-13T09:54:38;101672.84;;;25.59;49.71
72857;BME280;62742;52.136;4.500;2023-07-13T09:57:19;101673.25;;;25.80;49.58
72857;BME280;62742;52.136;4.500;2023-07-13T09:59:52;101672.78;;;25.46;48.75
72857;BME280;62742;52.136;4.500;2023-07-13T10:02:32;101682.63;;;25.87;48.50
72857;BME280;62742;52.136;4.500;2023-07-13T10:05:07;101685.78;;;26.21;48.19
72857;BME280;62742;52.136;4.500;2023-07-13T10:07:39;101682.56;;;26.29;46.30
72857;BME280;62742;52.136;4.500;2023-07-13T10:10:18;101689.31;;;26.22;47.12
72857;BME280;62742;52.136;4.500;2023-07-13T10:12:48;101695.19;;;26.41;46.83
72857;BME280;62742;52.136;4.500;2023-07-13T10:15:20;101698.44;;;25.79;47.34
72857;BME280;62742;52.136;4.500;2023-07-13T10:17:54;101708.19;;;25.26;48.88
72857;BME280;62742;52.136;4.500;2023-07-13T10:20:25;101707.63;;;25.35;48.31
72857;BME280;62742;52.136;4.500;2023-07-13T10:23:05;101714.56;;;25.52;48.32
72857;BME280;62742;52.136;4.500;2023-07-13T10:25:42;101711.63;;;26.11;47.24
72857;BME280;62742;52.136;4.500;2023-07-13T10:28:31;101714.72;;;26.45;47.49
72857;BME280;62742;52.136;4.500;2023-07-13T10:31:05;101710.81;;;26.36;48.08
72857;BME280;62742;52.136;4.500;2023-07-13T10:33:38;101717.59;;;25.18;49.33
72857;BME280;62742;52.136;4.500;2023-07-13T10:36:37;101724.69;;;24.62;51.02
72857;BME280;62742;52.136;4.500;2023-07-13T10:39:24;101720.28;;;24.75;50.25
72857;BME280;62742;52.136;4.500;2023-07-13T10:41:58;101722.59;;;25.39;49.97
72857;BME280;62742;52.136;4.500;2023-07-13T10:44:32;101720.34;;;25.87;49.70
72857;BME280;62742;52.136;4.500;2023-07-13T10:47:02;101726.41;;;25.49;49.71
72857;BME280;62742;52.136;4.500;2023-07-13T10:49:34;101729.41;;;25.45;49.51
72857;BME280;62742;52.136;4.500;2023-07-13T10:52:03;101733.34;;;25.95;47.09
72857;BME280;62742;52.136;4.500;2023-07-13T10:54:34;101738.56;;;26.11;47.00
72857;BME280;62742;52.136;4.500;2023-07-13T10:57:15;101732.41;;;26.49;47.66
72857;BME280;62742;52.136;4.500;2023-07-13T10:59:48;101733.03;;;26.53;46.36
72857;BME280;62742;52.136;4.500;2023-07-13T11:02:35;101736.13;;;26.74;47.74
72857;BME280;62742;52.136;4.500;2023-07-13T11:05:26;101732.13;;;27.05;46.84
72857;BME280;62742;52.136;4.500;2023-07-13T11:08:51;101740.38;;;26.38;45.85
72857;BME280;62742;52.136;4.500;2023-07-13T11:11:34;101727.94;;;25.53;47.40
72857;BME280;62742;52.136;4.500;2023-07-13T11:14:25;101738.22;;;26.03;47.42
72857;BME280;62742;52.136;4.500;2023-07-13T11:16:54;101743.00;;;26.12;47.75
72857;BME280;62742;52.136;4.500;2023-07-13T11:24:52;101726.63;;;27.06;46.17
72857;BME280;62742;52.136;4.500;2023-07-13T11:27:37;101731.28;;;27.04;45.63
72857;BME280;62742;52.136;4.500;2023-07-13T11:36:16;101721.66;;;26.75;45.34
72857;BME280;62742;52.136;4.500;2023-07-13T11:39:01;101726.84;;;27.16;47.17
72857;BME280;62742;52.136;4.500;2023-07-13T11:41:53;101729.66;;;26.89;45.09
72857;BME280;62742;52.136;4.500;2023-07-13T11:44:25;101730.03;;;26.57;45.57
72857;BME280;62742;52.136;4.500;2023-07-13T11:46:57;101740.31;;;26.25;47.71
72857;BME280;62742;52.136;4.500;2023-07-13T11:49:30;101736.13;;;26.74;46.54
72857;BME280;62742;52.136;4.500;2023-07-13T11:51:59;101747.47;;;26.79;44.63
72857;BME280;62742;52.136;4.500;2023-07-13T11:54:34;101740.22;;;26.79;45.19
72857;BME280;62742;52.136;4.500;2023-07-13T11:57:30;101749.59;;;27.12;46.27
72857;BME280;62742;52.136;4.500;2023-07-13T12:00:03;101743.03;;;27.29;45.53
72857;BME280;62742;52.136;4.500;2023-07-13T12:02:43;101745.44;;;27.58;44.66
72857;BME280;62742;52.136;4.500;2023-07-13T12:05:15;101749.94;;;26.95;46.04
72857;BME280;62742;52.136;4.500;2023-07-13T12:07:44;101742.00;;;26.53;44.55
72857;BME280;62742;52.136;4.500;2023-07-13T12:10:28;101753.69;;;26.26;44.83
72857;BME280;62742;52.136;4.500;2023-07-13T12:13:03;101754.53;;;26.14;45.98
72857;BME280;62742;52.136;4.500;2023-07-13T12:15:38;101750.13;;;26.66;47.33
72857;BME280;62742;52.136;4.500;2023-07-13T12:18:15;101752.31;;;26.74;45.86
72857;BME280;62742;52.136;4.500;2023-07-13T12:20:46;101749.28;;;26.91;45.41
72857;BME280;62742;52.136;4.500;2023-07-13T12:23:29;101740.31;;;27.42;44.66
72857;BME280;62742;52.136;4.500;2023-07-13T12:26:03;101753.69;;;27.43;43.95
72857;BME280;62742;52.136;4.500;2023-07-13T12:28:39;101748.50;;;27.40;42.84
72857;BME280;62742;52.136;4.500;2023-07-13T12:34:16;101748.94;;;27.34;43.65
72857;BME280;62742;52.136;4.500;2023-07-13T12:36:59;101746.66;;;27.41;44.68
72857;BME280;62742;52.136;4.500;2023-07-13T12:39:37;101742.38;;;27.13;43.96
72857;BME280;62742;52.136;4.500;2023-07-13T12:42:27;101753.50;;;26.82;42.46
72857;BME280;62742;52.136;4.500;2023-07-13T12:44:58;101742.59;;;26.97;42.90
72857;BME280;62742;52.136;4.500;2023-07-13T12:47:28;101746.38;;;27.20;42.66
72857;BME280;62742;52.136;4.500;2023-07-13T12:49:57;101747.72;;;26.48;42.52
72857;BME280;62742;52.136;4.500;2023-07-13T12:52:32;101758.59;;;25.92;44.80
72857;BME280;62742;52.136;4.500;2023-07-13T12:55:12;101766.22;;;26.27;44.42
72857;BME280;62742;52.136;4.500;2023-07-13T12:57:54;101752.72;;;26.67;45.71
72857;BME280;62742;52.136;4.500;2023-07-13T13:03:11;101762.59;;;26.54;46.34
72857;BME280;62742;52.136;4.500;2023-07-13T13:05:59;101763.38;;;26.56;45.57
72857;BME280;62742;52.136;4.500;2023-07-13T13:08:48;101750.59;;;27.11;44.67
72857;BME280;62742;52.136;4.500;2023-07-13T13:11:20;101773.03;;;26.86;45.06
72857;BME280;62742;52.136;4.500;2023-07-13T13:13:50;101776.38;;;26.37;45.63
72857;BME280;62742;52.136;4.500;2023-07-13T13:16:30;101776.13;;;26.00;46.32
72857;BME280;62742;52.136;4.500;2023-07-13T13:19:14;101779.34;;;25.78;47.14
72857;BME280;62742;52.136;4.500;2023-07-13T13:21:43;101779.09;;;25.53;47.56
72857;BME280;62742;52.136;4.500;2023-07-13T13:24:12;101778.19;;;25.82;47.91
72857;BME280;62742;52.136;4.500;2023-07-13T13:26:42;101779.53;;;26.16;47.17
72857;BME280;62742;52.136;4.500;2023-07-13T13:29:16;101779.75;;;26.53;47.00
72857;BME280;62742;52.136;4.500;2023-07-13T13:31:44;101775.06;;;26.42;46.87
72857;BME280;62742;52.136;4.500;2023-07-13T13:34:14;101768.28;;;25.97;46.54
72857;BME280;62742;52.136;4.500;2023-07-13T13:36:43;101779.19;;;26.08;47.62
72857;BME280;62742;52.136;4.500;2023-07-13T13:39:23;101774.22;;;26.42;47.18
72857;BME280;62742;52.136;4.500;2023-07-13T13:41:53;101781.38;;;26.56;46.09
72857;BME280;62742;52.136;4.500;2023-07-13T13:44:22;101791.16;;;26.84;45.63
72857;BME280;62742;52.136;4.500;2023-07-13T13:46:55;101791.38;;;26.41;44.75